PWSweather.com
Personal Weather Stations
Station Observations
KTXDECATUR
Wildwood, Decatur, TX 76234

WildwoodDecatur, TX 76234

Lat: 33.2634, Lon: -97.6651

Elevation: 800

Station Type: Davis Vantage Pro 2

http://weather.wildwoodnaturist.com

Latest ConditionsUpdated 5:30:02 PM CST Saturday, Nov 22, 2014
Currently Today's Max Today's Min Today's Average
Temperature 59.0°F15.0°C 63.8°F17.7°C 59.0°F15.0°C 60.7°F15.9°C
Dew Point 58.2°F14.6°C 62.2°F16.8°C 58.2°F14.6°C 59.5°F15.3°C
Winds 1.2 mph ESE1.9 kmh ESE 15.0 mph ESE24.1 kmh ESE - 6.9 mph 11.1 kmh
Wind Gusts 1.2 mph1.9 kmh 18.4 mph29.6 kmh - -
Humidity 97% 97% 94% 96%
Pressure 29.85 in1010.8 mb 30.04 in1017.3 mb 29.82 in1009.8 mb -
Precipitation - 0.58 in14.7 mm - -
Hour Temp Dew Point Humidity Winds Wind Gusts Pressure Precip Precip Rate Daily Precip Total
05:30 PM 59.0°F15.0°C 58.2°F14.6°C 97% 1.2 mph ESE1.9 kmh ESE 1.2 mph1.9 kmh 29.85 in1010.8 mb 0.01 in0.3 mm 0.06 in/hr1.5 mm/hr 0.58 in14.7 mm
05:20 PM 59.0°F15.0°C 58.2°F14.6°C 97% 1.2 mph ESE1.9 kmh ESE 1.2 mph1.9 kmh 29.85 in1010.8 mb 0.01 in0.3 mm 0.12 in/hr3.0 mm/hr 0.57 in14.5 mm
05:15 PM 59.0°F15.0°C 58.2°F14.6°C 97% 1.2 mph ESE1.9 kmh ESE -- 29.84 in1010.5 mb 0.01 in0.3 mm 0.12 in/hr3.0 mm/hr 0.57 in14.5 mm
05:10 PM 59.1°F15.1°C 58.2°F14.6°C 97% 3.5 mph ESE5.6 kmh ESE 5.8 mph9.3 kmh 29.84 in1010.5 mb 0.02 in0.5 mm 0.12 in/hr3.0 mm/hr 0.56 in14.2 mm
05:00 PM 59.2°F15.1°C 58.3°F14.6°C 97% Calm Calm -- 29.86 in1011.2 mb 0.01 in0.3 mm 0.01 in/hr0.3 mm/hr 0.54 in13.7 mm
04:50 PM 59.2°F15.1°C 58.3°F14.6°C 97% Calm Calm -- 29.85 in1010.8 mb 0.00 in0.0 mm 0.00 in/hr0.0 mm/hr 0.53 in13.5 mm
04:45 PM 59.2°F15.1°C 58.3°F14.6°C 97% Calm Calm -- 29.85 in1010.8 mb 0.01 in0.3 mm 0.12 in/hr3.0 mm/hr 0.53 in13.5 mm
04:40 PM 59.2°F15.1°C 58.3°F14.6°C 97% Calm Calm -- 29.85 in1010.8 mb 0.00 in0.0 mm 0.00 in/hr0.0 mm/hr 0.52 in13.2 mm
04:30 PM 59.3°F15.2°C 58.4°F14.7°C 97% Calm Calm -- 29.84 in1010.5 mb 0.00 in0.0 mm 0.00 in/hr0.0 mm/hr 0.52 in13.2 mm
04:20 PM 59.4°F15.2°C 58.5°F14.7°C 97% 2.3 mph SE3.7 kmh SE 3.5 mph5.6 kmh 29.84 in1010.5 mb 0.00 in0.0 mm 0.00 in/hr0.0 mm/hr 0.52 in13.2 mm
04:15 PM 59.4°F15.2°C 58.5°F14.7°C 97% 1.2 mph SE1.9 kmh SE 3.5 mph5.6 kmh 29.84 in1010.5 mb 0.00 in0.0 mm 0.00 in/hr0.0 mm/hr 0.52 in13.2 mm
04:10 PM 59.4°F15.2°C 58.5°F14.7°C 97% 1.2 mph SE1.9 kmh SE 2.3 mph3.7 kmh 29.84 in1010.5 mb 0.00 in0.0 mm 0.00 in/hr0.0 mm/hr 0.52 in13.2 mm
04:00 PM 59.4°F15.2°C 58.6°F14.8°C 97% 4.6 mph ESE7.4 kmh ESE 5.8 mph9.3 kmh 29.84 in1010.5 mb 0.00 in0.0 mm 0.00 in/hr0.0 mm/hr 0.52 in13.2 mm
03:50 PM 59.5°F15.3°C 58.6°F14.8°C 97% 2.3 mph ESE3.7 kmh ESE 8.1 mph13.0 kmh 29.84 in1010.5 mb 0.00 in0.0 mm 0.00 in/hr0.0 mm/hr 0.52 in13.2 mm
03:45 PM 59.5°F15.3°C 58.6°F14.8°C 97% 2.3 mph ESE3.7 kmh ESE 4.6 mph7.4 kmh 29.84 in1010.5 mb 0.00 in0.0 mm 0.00 in/hr0.0 mm/hr 0.52 in13.2 mm
03:40 PM 59.5°F15.3°C 58.6°F14.8°C 97% 3.5 mph ESE5.6 kmh ESE 3.5 mph5.6 kmh 29.84 in1010.5 mb 0.00 in0.0 mm 0.00 in/hr0.0 mm/hr 0.52 in13.2 mm
03:30 PM 59.4°F15.2°C 58.5°F14.7°C 97% 10.4 mph SE16.7 kmh SE 12.7 mph20.4 kmh 29.83 in1010.2 mb 0.00 in0.0 mm 0.00 in/hr0.0 mm/hr 0.52 in13.2 mm
03:20 PM 59.5°F15.3°C 58.6°F14.8°C 97% 6.9 mph E11.1 kmh E 8.1 mph13.0 kmh 29.82 in1009.8 mb 0.00 in0.0 mm 0.00 in/hr0.0 mm/hr 0.52 in13.2 mm
03:15 PM 59.5°F15.3°C 58.7°F14.8°C 97% 5.8 mph ESE9.3 kmh ESE 6.9 mph11.1 kmh 29.82 in1009.8 mb 0.00 in0.0 mm 0.00 in/hr0.0 mm/hr 0.52 in13.2 mm
03:10 PM 59.6°F15.3°C 58.8°F14.9°C 97% 4.6 mph ESE7.4 kmh ESE 8.1 mph13.0 kmh 29.83 in1010.2 mb 0.00 in0.0 mm 0.00 in/hr0.0 mm/hr 0.52 in13.2 mm
03:00 PM 59.8°F15.4°C 58.9°F14.9°C 97% 5.8 mph SE9.3 kmh SE 6.9 mph11.1 kmh 29.82 in1009.8 mb 0.00 in0.0 mm 0.00 in/hr0.0 mm/hr 0.52 in13.2 mm
02:50 PM 60.0°F15.6°C 59.1°F15.1°C 97% 11.5 mph SE18.5 kmh SE 15.0 mph24.1 kmh 29.82 in1009.8 mb 0.01 in0.3 mm 0.12 in/hr3.0 mm/hr 0.52 in13.2 mm
02:45 PM 60.1°F15.6°C 59.2°F15.1°C 97% 10.4 mph SE16.7 kmh SE 15.0 mph24.1 kmh 29.82 in1009.8 mb 0.00 in0.0 mm 0.00 in/hr0.0 mm/hr 0.51 in13.0 mm
02:40 PM 60.2°F15.7°C 59.3°F15.2°C 97% 10.4 mph ESE16.7 kmh ESE 10.4 mph16.7 kmh 29.82 in1009.8 mb 0.00 in0.0 mm 0.00 in/hr0.0 mm/hr 0.51 in13.0 mm
02:30 PM 60.3°F15.7°C 59.5°F15.3°C 97% 6.9 mph SE11.1 kmh SE 10.4 mph16.7 kmh 29.82 in1009.8 mb 0.00 in0.0 mm 0.00 in/hr0.0 mm/hr 0.51 in13.0 mm
02:20 PM 60.4°F15.8°C 59.5°F15.3°C 97% 6.9 mph ESE11.1 kmh ESE 10.4 mph16.7 kmh 29.83 in1010.2 mb 0.00 in0.0 mm 0.00 in/hr0.0 mm/hr 0.51 in13.0 mm
02:15 PM 60.5°F15.8°C 59.6°F15.3°C 97% 5.8 mph SE9.3 kmh SE 10.4 mph16.7 kmh 29.83 in1010.2 mb 0.00 in0.0 mm 0.00 in/hr0.0 mm/hr 0.51 in13.0 mm
02:10 PM 60.5°F15.8°C 59.6°F15.3°C 97% 3.5 mph SE5.6 kmh SE 6.9 mph11.1 kmh 29.83 in1010.2 mb 0.00 in0.0 mm 0.00 in/hr0.0 mm/hr 0.51 in13.0 mm
02:00 PM 60.5°F15.8°C 59.6°F15.3°C 97% 5.8 mph SE9.3 kmh SE 10.4 mph16.7 kmh 29.83 in1010.2 mb 0.00 in0.0 mm 0.00 in/hr0.0 mm/hr 0.51 in13.0 mm
01:50 PM 60.5°F15.8°C 59.6°F15.3°C 97% 2.3 mph SE3.7 kmh SE 6.9 mph11.1 kmh 29.84 in1010.5 mb 0.00 in0.0 mm 0.00 in/hr0.0 mm/hr 0.51 in13.0 mm
01:45 PM 60.4°F15.8°C 59.6°F15.3°C 97% 6.9 mph SE11.1 kmh SE 10.4 mph16.7 kmh 29.84 in1010.5 mb 0.00 in0.0 mm 0.00 in/hr0.0 mm/hr 0.51 in13.0 mm
01:40 PM 60.5°F15.8°C 59.6°F15.3°C 97% 4.6 mph SE7.4 kmh SE 8.1 mph13.0 kmh 29.84 in1010.5 mb 0.00 in0.0 mm 0.00 in/hr0.0 mm/hr 0.51 in13.0 mm
01:30 PM 60.5°F15.8°C 59.6°F15.3°C 97% 9.2 mph SE14.8 kmh SE 10.4 mph16.7 kmh 29.85 in1010.8 mb 0.00 in0.0 mm 0.00 in/hr0.0 mm/hr 0.51 in13.0 mm
01:20 PM 60.4°F15.8°C 59.6°F15.3°C 97% 9.2 mph SE14.8 kmh SE 10.4 mph16.7 kmh 29.85 in1010.8 mb 0.00 in0.0 mm 0.00 in/hr0.0 mm/hr 0.51 in13.0 mm
01:15 PM 60.5°F15.8°C 59.6°F15.3°C 97% 8.1 mph SE13.0 kmh SE 11.5 mph18.5 kmh 29.86 in1011.2 mb 0.00 in0.0 mm 0.00 in/hr0.0 mm/hr 0.51 in13.0 mm
01:10 PM 60.6°F15.9°C 59.7°F15.4°C 97% 9.2 mph SE14.8 kmh SE 16.1 mph25.9 kmh 29.86 in1011.2 mb 0.00 in0.0 mm 0.00 in/hr0.0 mm/hr 0.51 in13.0 mm
01:00 PM 60.8°F16.0°C 59.9°F15.5°C 97% 8.1 mph SE13.0 kmh SE 11.5 mph18.5 kmh 29.87 in1011.5 mb 0.00 in0.0 mm 0.00 in/hr0.0 mm/hr 0.51 in13.0 mm
12:50 PM 60.7°F15.9°C 59.8°F15.4°C 97% 5.8 mph ESE9.3 kmh ESE 8.1 mph13.0 kmh 29.88 in1011.9 mb 0.01 in0.3 mm 0.12 in/hr3.0 mm/hr 0.51 in13.0 mm
12:45 PM 60.7°F15.9°C 59.8°F15.4°C 97% 5.8 mph SE9.3 kmh SE 10.4 mph16.7 kmh 29.89 in1012.2 mb 0.02 in0.5 mm 0.24 in/hr6.1 mm/hr 0.50 in12.7 mm
12:40 PM 60.6°F15.9°C 59.8°F15.4°C 97% 4.6 mph SE7.4 kmh SE 15.0 mph24.1 kmh 29.89 in1012.2 mb 0.00 in0.0 mm 0.00 in/hr0.0 mm/hr 0.48 in12.2 mm
12:30 PM 60.7°F15.9°C 59.8°F15.4°C 97% 5.8 mph ESE9.3 kmh ESE 8.1 mph13.0 kmh 29.90 in1012.5 mb 0.00 in0.0 mm 0.00 in/hr0.0 mm/hr 0.48 in12.2 mm
12:20 PM 60.8°F16.0°C 59.9°F15.5°C 97% 1.2 mph ESE1.9 kmh ESE 4.6 mph7.4 kmh 29.91 in1012.9 mb 0.00 in0.0 mm 0.00 in/hr0.0 mm/hr 0.48 in12.2 mm
12:15 PM 60.9°F16.1°C 60.0°F15.6°C 97% 5.8 mph SE9.3 kmh SE 11.5 mph18.5 kmh 29.92 in1013.2 mb 0.00 in0.0 mm 0.00 in/hr0.0 mm/hr 0.48 in12.2 mm
12:10 PM 61.0°F16.1°C 60.1°F15.6°C 97% 5.8 mph SE9.3 kmh SE 10.4 mph16.7 kmh 29.92 in1013.2 mb 0.00 in0.0 mm 0.00 in/hr0.0 mm/hr 0.48 in12.2 mm
12:00 PM 61.0°F16.1°C 60.1°F15.6°C 97% 4.6 mph SE7.4 kmh SE 5.8 mph9.3 kmh 29.92 in1013.2 mb 0.00 in0.0 mm 0.00 in/hr0.0 mm/hr 0.48 in12.2 mm
11:50 AM 61.0°F16.1°C 60.2°F15.7°C 97% 11.5 mph ESE18.5 kmh ESE 16.1 mph25.9 kmh 29.93 in1013.5 mb 0.00 in0.0 mm 0.00 in/hr0.0 mm/hr 0.48 in12.2 mm
11:45 AM 61.0°F16.1°C 60.1°F15.6°C 97% 4.6 mph SE7.4 kmh SE 6.9 mph11.1 kmh 29.94 in1013.9 mb 0.00 in0.0 mm 0.00 in/hr0.0 mm/hr 0.48 in12.2 mm
11:40 AM 60.9°F16.1°C 60.0°F15.6°C 97% 5.8 mph SE9.3 kmh SE 9.2 mph14.8 kmh 29.95 in1014.2 mb 0.00 in0.0 mm 0.00 in/hr0.0 mm/hr 0.48 in12.2 mm
11:30 AM 60.7°F15.9°C 59.9°F15.5°C 97% 3.5 mph SE5.6 kmh SE 4.6 mph7.4 kmh 29.95 in1014.2 mb 0.00 in0.0 mm 0.00 in/hr0.0 mm/hr 0.48 in12.2 mm
11:20 AM 60.5°F15.8°C 59.7°F15.4°C 97% 8.1 mph SE13.0 kmh SE 9.2 mph14.8 kmh 29.96 in1014.6 mb 0.00 in0.0 mm 0.00 in/hr0.0 mm/hr 0.48 in12.2 mm
11:15 AM 60.5°F15.8°C 59.6°F15.3°C 97% 5.8 mph SE9.3 kmh SE 11.5 mph18.5 kmh 29.96 in1014.6 mb 0.00 in0.0 mm 0.00 in/hr0.0 mm/hr 0.48 in12.2 mm
11:10 AM 60.4°F15.8°C 59.5°F15.3°C 97% 8.1 mph SSE13.0 kmh SSE 8.1 mph13.0 kmh 29.97 in1014.9 mb 0.00 in0.0 mm 0.00 in/hr0.0 mm/hr 0.48 in12.2 mm
11:00 AM 60.2°F15.7°C 59.3°F15.2°C 97% 5.8 mph SE9.3 kmh SE 8.1 mph13.0 kmh 29.97 in1014.9 mb 0.00 in0.0 mm 0.00 in/hr0.0 mm/hr 0.48 in12.2 mm
10:50 AM 60.0°F15.6°C 59.1°F15.1°C 97% 6.9 mph SE11.1 kmh SE 6.9 mph11.1 kmh 29.98 in1015.2 mb 0.00 in0.0 mm 0.00 in/hr0.0 mm/hr 0.48 in12.2 mm
10:45 AM 59.9°F15.5°C 59.1°F15.1°C 97% 5.8 mph SE9.3 kmh SE 9.2 mph14.8 kmh 29.98 in1015.2 mb 0.00 in0.0 mm 0.00 in/hr0.0 mm/hr 0.48 in12.2 mm
10:40 AM 59.8°F15.4°C 58.9°F14.9°C 97% 6.9 mph SE11.1 kmh SE 11.5 mph18.5 kmh 29.98 in1015.2 mb 0.00 in0.0 mm 0.00 in/hr0.0 mm/hr 0.48 in12.2 mm
10:30 AM 59.6°F15.3°C 58.5°F14.7°C 96% 6.9 mph SE11.1 kmh SE 10.4 mph16.7 kmh 29.99 in1015.6 mb 0.00 in0.0 mm 0.00 in/hr0.0 mm/hr 0.48 in12.2 mm
10:20 AM 59.7°F15.4°C 58.6°F14.8°C 96% 9.2 mph SE14.8 kmh SE 11.5 mph18.5 kmh 29.99 in1015.6 mb 0.00 in0.0 mm 0.00 in/hr0.0 mm/hr 0.48 in12.2 mm
10:15 AM 59.7°F15.4°C 58.6°F14.8°C 96% 8.1 mph SE13.0 kmh SE 13.8 mph22.2 kmh 29.99 in1015.6 mb 0.00 in0.0 mm 0.00 in/hr0.0 mm/hr 0.48 in12.2 mm
10:10 AM 59.7°F15.4°C 58.6°F14.8°C 96% 9.2 mph SE14.8 kmh SE 11.5 mph18.5 kmh 30.00 in1015.9 mb 0.00 in0.0 mm 0.00 in/hr0.0 mm/hr 0.48 in12.2 mm
10:00 AM 59.7°F15.4°C 58.6°F14.8°C 96% 8.1 mph SE13.0 kmh SE 11.5 mph18.5 kmh 30.00 in1015.9 mb 0.00 in0.0 mm 0.00 in/hr0.0 mm/hr 0.48 in12.2 mm
09:50 AM 59.7°F15.4°C 58.6°F14.8°C 96% 5.8 mph SE9.3 kmh SE 8.1 mph13.0 kmh 30.00 in1015.9 mb 0.00 in0.0 mm 0.00 in/hr0.0 mm/hr 0.48 in12.2 mm
09:45 AM 59.7°F15.4°C 58.5°F14.7°C 96% 6.9 mph SE11.1 kmh SE 8.1 mph13.0 kmh 30.00 in1015.9 mb 0.00 in0.0 mm 0.00 in/hr0.0 mm/hr 0.48 in12.2 mm
09:40 AM 59.7°F15.4°C 58.5°F14.7°C 96% 9.2 mph SE14.8 kmh SE 16.1 mph25.9 kmh 30.00 in1015.9 mb 0.01 in0.3 mm 0.06 in/hr1.5 mm/hr 0.48 in12.2 mm
09:30 AM 59.6°F15.3°C 58.5°F14.7°C 96% 6.9 mph SE11.1 kmh SE 10.4 mph16.7 kmh 30.00 in1015.9 mb 0.01 in0.3 mm 0.06 in/hr1.5 mm/hr 0.48 in12.2 mm
09:20 AM 59.7°F15.4°C 58.6°F14.8°C 96% 6.9 mph SE11.1 kmh SE 9.2 mph14.8 kmh 30.00 in1015.9 mb 0.00 in0.0 mm 0.00 in/hr0.0 mm/hr 0.47 in11.9 mm
09:15 AM 59.7°F15.4°C 58.6°F14.8°C 96% 8.1 mph SE13.0 kmh SE 12.7 mph20.4 kmh 30.00 in1015.9 mb 0.00 in0.0 mm 0.00 in/hr0.0 mm/hr 0.47 in11.9 mm
09:10 AM 59.7°F15.4°C 58.6°F14.8°C 96% 6.9 mph E11.1 kmh E 9.2 mph14.8 kmh 30.00 in1015.9 mb 0.00 in0.0 mm 0.00 in/hr0.0 mm/hr 0.47 in11.9 mm
09:00 AM 59.9°F15.5°C 59.0°F15.0°C 97% 9.2 mph SE14.8 kmh SE 12.7 mph20.4 kmh 30.00 in1015.9 mb 0.00 in0.0 mm 0.00 in/hr0.0 mm/hr 0.47 in11.9 mm
08:50 AM 59.9°F15.5°C 58.8°F14.9°C 96% 12.7 mph ESE20.4 kmh ESE 16.1 mph25.9 kmh 29.99 in1015.6 mb 0.00 in0.0 mm 0.00 in/hr0.0 mm/hr 0.47 in11.9 mm
08:45 AM 59.9°F15.5°C 58.8°F14.9°C 96% 9.2 mph SE14.8 kmh SE 10.4 mph16.7 kmh 30.00 in1015.9 mb 0.00 in0.0 mm 0.00 in/hr0.0 mm/hr 0.47 in11.9 mm
08:40 AM 59.9°F15.5°C 58.7°F14.8°C 96% 11.5 mph SE18.5 kmh SE 12.7 mph20.4 kmh 30.00 in1015.9 mb 0.00 in0.0 mm 0.00 in/hr0.0 mm/hr 0.47 in11.9 mm
08:30 AM 59.8°F15.4°C 58.6°F14.8°C 96% 9.2 mph SE14.8 kmh SE 13.8 mph22.2 kmh 29.99 in1015.6 mb 0.00 in0.0 mm 0.00 in/hr0.0 mm/hr 0.47 in11.9 mm
08:20 AM 59.8°F15.4°C 58.6°F14.8°C 96% 11.5 mph SE18.5 kmh SE 13.8 mph22.2 kmh 29.99 in1015.6 mb 0.00 in0.0 mm 0.00 in/hr0.0 mm/hr 0.47 in11.9 mm
08:15 AM 59.7°F15.4°C 58.6°F14.8°C 96% 10.4 mph ESE16.7 kmh ESE 12.7 mph20.4 kmh 29.99 in1015.6 mb 0.00 in0.0 mm 0.00 in/hr0.0 mm/hr 0.47 in11.9 mm
08:10 AM 59.8°F15.4°C 58.6°F14.8°C 96% 12.7 mph SE20.4 kmh SE 18.4 mph29.6 kmh 29.99 in1015.6 mb 0.00 in0.0 mm 0.00 in/hr0.0 mm/hr 0.47 in11.9 mm
08:00 AM 59.8°F15.4°C 58.6°F14.8°C 96% 11.5 mph E18.5 kmh E 16.1 mph25.9 kmh 29.98 in1015.2 mb 0.00 in0.0 mm 0.00 in/hr0.0 mm/hr 0.47 in11.9 mm
07:50 AM 59.8°F15.4°C 58.7°F14.8°C 96% 11.5 mph ESE18.5 kmh ESE 11.5 mph18.5 kmh 29.99 in1015.6 mb 0.01 in0.3 mm 0.12 in/hr3.0 mm/hr 0.47 in11.9 mm
07:45 AM 59.8°F15.4°C 58.7°F14.8°C 96% 10.4 mph E16.7 kmh E 15.0 mph24.1 kmh 29.98 in1015.2 mb 0.01 in0.3 mm 0.12 in/hr3.0 mm/hr 0.47 in11.9 mm
07:40 AM 59.9°F15.5°C 58.8°F14.9°C 96% 15.0 mph ESE24.1 kmh ESE 18.4 mph29.6 kmh 29.98 in1015.2 mb 0.02 in0.5 mm 0.12 in/hr3.0 mm/hr 0.46 in11.7 mm
07:30 AM 60.0°F15.6°C 58.9°F14.9°C 96% 9.2 mph SE14.8 kmh SE 12.7 mph20.4 kmh 30.00 in1015.9 mb 0.02 in0.5 mm 0.12 in/hr3.0 mm/hr 0.44 in11.2 mm
07:20 AM 60.1°F15.6°C 59.0°F15.0°C 96% 9.2 mph SE14.8 kmh SE 12.7 mph20.4 kmh 30.01 in1016.3 mb 0.00 in0.0 mm 0.00 in/hr0.0 mm/hr 0.42 in10.7 mm
07:15 AM 60.1°F15.6°C 59.0°F15.0°C 96% 10.4 mph ESE16.7 kmh ESE 13.8 mph22.2 kmh 30.00 in1015.9 mb 0.02 in0.5 mm 0.24 in/hr6.1 mm/hr 0.42 in10.7 mm
07:10 AM 60.1°F15.6°C 59.0°F15.0°C 96% 9.2 mph SE14.8 kmh SE 11.5 mph18.5 kmh 30.00 in1015.9 mb 0.00 in0.0 mm 0.00 in/hr0.0 mm/hr 0.40 in10.2 mm
07:00 AM 60.2°F15.7°C 59.0°F15.0°C 96% 8.1 mph SE13.0 kmh SE 11.5 mph18.5 kmh 30.00 in1015.9 mb 0.02 in0.5 mm 0.02 in/hr0.5 mm/hr 0.40 in10.2 mm
06:50 AM 60.3°F15.7°C 59.1°F15.1°C 96% 5.8 mph SE9.3 kmh SE 11.5 mph18.5 kmh 30.00 in1015.9 mb 0.01 in0.3 mm 0.12 in/hr3.0 mm/hr 0.38 in9.7 mm
06:45 AM 60.3°F15.7°C 59.2°F15.1°C 96% 11.5 mph SE18.5 kmh SE 13.8 mph22.2 kmh 30.00 in1015.9 mb 0.00 in0.0 mm 0.00 in/hr0.0 mm/hr 0.37 in9.4 mm
06:40 AM 60.4°F15.8°C 59.3°F15.2°C 96% 8.1 mph SE13.0 kmh SE 11.5 mph18.5 kmh 30.00 in1015.9 mb 0.00 in0.0 mm 0.00 in/hr0.0 mm/hr 0.37 in9.4 mm
06:30 AM 60.4°F15.8°C 59.3°F15.2°C 96% 5.8 mph SE9.3 kmh SE 15.0 mph24.1 kmh 30.00 in1015.9 mb 0.04 in1.0 mm 0.24 in/hr6.1 mm/hr 0.37 in9.4 mm
06:20 AM 60.5°F15.8°C 59.4°F15.2°C 96% 5.8 mph SE9.3 kmh SE 9.2 mph14.8 kmh 30.00 in1015.9 mb 0.00 in0.0 mm 0.00 in/hr0.0 mm/hr 0.33 in8.4 mm
06:15 AM 60.6°F15.9°C 59.5°F15.3°C 96% 5.8 mph SE9.3 kmh SE 15.0 mph24.1 kmh 30.00 in1015.9 mb 0.00 in0.0 mm 0.00 in/hr0.0 mm/hr 0.33 in8.4 mm
06:10 AM 60.6°F15.9°C 59.5°F15.3°C 96% 5.8 mph SE9.3 kmh SE 6.9 mph11.1 kmh 30.00 in1015.9 mb 0.00 in0.0 mm 0.00 in/hr0.0 mm/hr 0.33 in8.4 mm
06:00 AM 60.7°F15.9°C 59.3°F15.2°C 95% 5.8 mph SE9.3 kmh SE 9.2 mph14.8 kmh 30.00 in1015.9 mb 0.00 in0.0 mm 0.00 in/hr0.0 mm/hr 0.33 in8.4 mm
05:50 AM 60.7°F15.9°C 59.3°F15.2°C 95% 6.9 mph SE11.1 kmh SE 16.1 mph25.9 kmh 30.00 in1015.9 mb 0.00 in0.0 mm 0.00 in/hr0.0 mm/hr 0.33 in8.4 mm
05:45 AM 60.7°F15.9°C 59.3°F15.2°C 95% 8.1 mph SE13.0 kmh SE 15.0 mph24.1 kmh 30.00 in1015.9 mb 0.00 in0.0 mm 0.00 in/hr0.0 mm/hr 0.33 in8.4 mm
05:40 AM 60.7°F15.9°C 59.3°F15.2°C 95% 9.2 mph SE14.8 kmh SE 12.7 mph20.4 kmh 30.00 in1015.9 mb 0.00 in0.0 mm 0.00 in/hr0.0 mm/hr 0.33 in8.4 mm
05:30 AM 60.9°F16.1°C 59.5°F15.3°C 95% 8.1 mph SE13.0 kmh SE 9.2 mph14.8 kmh 30.00 in1015.9 mb 0.00 in0.0 mm 0.00 in/hr0.0 mm/hr 0.33 in8.4 mm
05:20 AM 61.0°F16.1°C 59.6°F15.3°C 95% 6.9 mph SE11.1 kmh SE 11.5 mph18.5 kmh 30.00 in1015.9 mb 0.00 in0.0 mm 0.00 in/hr0.0 mm/hr 0.33 in8.4 mm
05:15 AM 61.0°F16.1°C 59.6°F15.3°C 95% 11.5 mph E18.5 kmh E 17.3 mph27.8 kmh 29.99 in1015.6 mb 0.00 in0.0 mm 0.00 in/hr0.0 mm/hr 0.33 in8.4 mm
05:10 AM 61.1°F16.2°C 59.7°F15.4°C 95% 8.1 mph SE13.0 kmh SE 10.4 mph16.7 kmh 29.99 in1015.6 mb 0.00 in0.0 mm 0.00 in/hr0.0 mm/hr 0.33 in8.4 mm
05:00 AM 61.3°F16.3°C 59.9°F15.5°C 95% 11.5 mph SE18.5 kmh SE 12.7 mph20.4 kmh 29.99 in1015.6 mb 0.00 in0.0 mm 0.00 in/hr0.0 mm/hr 0.33 in8.4 mm
04:50 AM 61.5°F16.4°C 60.1°F15.6°C 95% 10.4 mph SE16.7 kmh SE 11.5 mph18.5 kmh 30.00 in1015.9 mb 0.01 in0.3 mm 0.12 in/hr3.0 mm/hr 0.33 in8.4 mm
04:45 AM 61.6°F16.4°C 59.9°F15.5°C 94% 11.5 mph ESE18.5 kmh ESE 15.0 mph24.1 kmh 30.00 in1015.9 mb 0.00 in0.0 mm 0.00 in/hr0.0 mm/hr 0.32 in8.1 mm
04:40 AM 61.6°F16.4°C 60.2°F15.7°C 95% 12.7 mph SE20.4 kmh SE 17.3 mph27.8 kmh 29.99 in1015.6 mb 0.00 in0.0 mm 0.00 in/hr0.0 mm/hr 0.32 in8.1 mm
04:30 AM 61.2°F16.2°C 59.4°F15.2°C 94% 6.9 mph SE11.1 kmh SE 10.4 mph16.7 kmh 30.00 in1015.9 mb 0.00 in0.0 mm 0.00 in/hr0.0 mm/hr 0.32 in8.1 mm
04:20 AM 60.5°F15.8°C 58.7°F14.8°C 94% 4.6 mph ESE7.4 kmh ESE 9.2 mph14.8 kmh 30.00 in1015.9 mb 0.00 in0.0 mm 0.00 in/hr0.0 mm/hr 0.32 in8.1 mm
04:15 AM 60.3°F15.7°C 58.6°F14.8°C 94% 6.9 mph SE11.1 kmh SE 10.4 mph16.7 kmh 30.00 in1015.9 mb 0.00 in0.0 mm 0.00 in/hr0.0 mm/hr 0.32 in8.1 mm
04:10 AM 60.3°F15.7°C 58.6°F14.8°C 94% 5.8 mph SE9.3 kmh SE 10.4 mph16.7 kmh 30.00 in1015.9 mb 0.00 in0.0 mm 0.00 in/hr0.0 mm/hr 0.32 in8.1 mm
04:00 AM 60.3°F15.7°C 58.6°F14.8°C 94% 5.8 mph SE9.3 kmh SE 8.1 mph13.0 kmh 30.00 in1015.9 mb 0.00 in0.0 mm 0.00 in/hr0.0 mm/hr 0.32 in8.1 mm
03:50 AM 60.1°F15.6°C 58.7°F14.8°C 95% 3.5 mph SE5.6 kmh SE 8.1 mph13.0 kmh 30.00 in1015.9 mb 0.00 in0.0 mm 0.00 in/hr0.0 mm/hr 0.32 in8.1 mm
03:45 AM 60.2°F15.7°C 58.8°F14.9°C 95% 4.6 mph SE7.4 kmh SE 8.1 mph13.0 kmh 30.01 in1016.3 mb 0.00 in0.0 mm 0.00 in/hr0.0 mm/hr 0.32 in8.1 mm
03:40 AM 60.1°F15.6°C 58.7°F14.8°C 95% 4.6 mph SE7.4 kmh SE 8.1 mph13.0 kmh 30.01 in1016.3 mb 0.00 in0.0 mm 0.00 in/hr0.0 mm/hr 0.32 in8.1 mm
03:30 AM 60.4°F15.8°C 59.0°F15.0°C 95% 4.6 mph SE7.4 kmh SE 8.1 mph13.0 kmh 30.01 in1016.3 mb 0.00 in0.0 mm 0.00 in/hr0.0 mm/hr 0.32 in8.1 mm
03:20 AM 60.9°F16.1°C 59.5°F15.3°C 95% 4.6 mph SE7.4 kmh SE 13.8 mph22.2 kmh 30.01 in1016.3 mb 0.00 in0.0 mm 0.00 in/hr0.0 mm/hr 0.32 in8.1 mm
03:15 AM 61.2°F16.2°C 59.8°F15.4°C 95% 5.8 mph SE9.3 kmh SE 8.1 mph13.0 kmh 30.01 in1016.3 mb 0.00 in0.0 mm 0.00 in/hr0.0 mm/hr 0.32 in8.1 mm
03:10 AM 61.4°F16.3°C 60.0°F15.6°C 95% 9.2 mph SE14.8 kmh SE 10.4 mph16.7 kmh 30.01 in1016.3 mb 0.02 in0.5 mm 0.12 in/hr3.0 mm/hr 0.32 in8.1 mm
03:00 AM 61.7°F16.5°C 60.5°F15.8°C 96% 3.5 mph ESE5.6 kmh ESE 4.6 mph7.4 kmh 30.01 in1016.3 mb 0.07 in1.8 mm 0.08 in/hr2.0 mm/hr 0.31 in7.9 mm
02:50 AM 62.2°F16.8°C 61.1°F16.2°C 96% 9.2 mph S14.8 kmh S 10.4 mph16.7 kmh 30.04 in1017.3 mb 0.01 in0.3 mm 0.12 in/hr3.0 mm/hr 0.25 in6.4 mm
02:45 AM 62.5°F16.9°C 61.4°F16.3°C 96% 8.1 mph SE13.0 kmh SE 8.1 mph13.0 kmh 30.02 in1016.6 mb 0.11 in2.8 mm 1.32 in/hr33.5 mm/hr 0.24 in6.1 mm
02:40 AM 62.8°F17.1°C 61.7°F16.5°C 96% 8.1 mph SSE13.0 kmh SSE 11.5 mph18.5 kmh 30.02 in1016.6 mb 0.06 in1.5 mm 0.36 in/hr9.1 mm/hr 0.16 in4.1 mm
02:30 AM 63.0°F17.2°C 61.8°F16.6°C 96% 5.8 mph SSE9.3 kmh SSE 11.5 mph18.5 kmh 30.03 in1016.9 mb 0.00 in0.0 mm 0.00 in/hr0.0 mm/hr 0.10 in2.5 mm
02:20 AM 63.1°F17.3°C 61.9°F16.6°C 96% 4.6 mph SE7.4 kmh SE 9.2 mph14.8 kmh 30.02 in1016.6 mb 0.01 in0.3 mm 0.12 in/hr3.0 mm/hr 0.10 in2.5 mm
02:15 AM 63.1°F17.3°C 61.9°F16.6°C 96% 4.6 mph SE7.4 kmh SE 5.8 mph9.3 kmh 30.02 in1016.6 mb 0.01 in0.3 mm 0.12 in/hr3.0 mm/hr 0.09 in2.3 mm
02:10 AM 63.1°F17.3°C 61.9°F16.6°C 96% 4.6 mph SE7.4 kmh SE 8.1 mph13.0 kmh 30.03 in1016.9 mb 0.00 in0.0 mm 0.00 in/hr0.0 mm/hr 0.08 in2.0 mm
02:00 AM 63.2°F17.3°C 62.0°F16.7°C 96% 3.5 mph SE5.6 kmh SE 5.8 mph9.3 kmh 30.02 in1016.6 mb 0.00 in0.0 mm 0.00 in/hr0.0 mm/hr 0.08 in2.0 mm
01:50 AM 63.2°F17.3°C 62.0°F16.7°C 96% 4.6 mph SE7.4 kmh SE 6.9 mph11.1 kmh 30.03 in1016.9 mb 0.00 in0.0 mm 0.00 in/hr0.0 mm/hr 0.08 in2.0 mm
01:45 AM 63.2°F17.3°C 62.0°F16.7°C 96% 5.8 mph SE9.3 kmh SE 10.4 mph16.7 kmh 30.02 in1016.6 mb 0.00 in0.0 mm 0.00 in/hr0.0 mm/hr 0.08 in2.0 mm
01:40 AM 63.2°F17.3°C 61.7°F16.5°C 95% 4.6 mph SE7.4 kmh SE 9.2 mph14.8 kmh 30.03 in1016.9 mb 0.00 in0.0 mm 0.00 in/hr0.0 mm/hr 0.08 in2.0 mm
01:30 AM 63.2°F17.3°C 61.8°F16.6°C 95% 10.4 mph ESE16.7 kmh ESE 11.5 mph18.5 kmh 30.02 in1016.6 mb 0.00 in0.0 mm 0.00 in/hr0.0 mm/hr 0.08 in2.0 mm
01:20 AM 63.3°F17.4°C 61.9°F16.6°C 95% 8.1 mph SSE13.0 kmh SSE 10.4 mph16.7 kmh 30.02 in1016.6 mb 0.00 in0.0 mm 0.00 in/hr0.0 mm/hr 0.08 in2.0 mm
01:15 AM 63.4°F17.4°C 61.9°F16.6°C 95% 10.4 mph SE16.7 kmh SE 12.7 mph20.4 kmh 30.02 in1016.6 mb 0.00 in0.0 mm 0.00 in/hr0.0 mm/hr 0.08 in2.0 mm
01:10 AM 63.4°F17.4°C 61.9°F16.6°C 95% 8.1 mph SSE13.0 kmh SSE 13.8 mph22.2 kmh 30.02 in1016.6 mb 0.00 in0.0 mm 0.00 in/hr0.0 mm/hr 0.08 in2.0 mm
01:00 AM 63.5°F17.5°C 62.0°F16.7°C 95% 9.2 mph S14.8 kmh S 12.7 mph20.4 kmh 30.03 in1016.9 mb 0.01 in0.3 mm 0.01 in/hr0.3 mm/hr 0.08 in2.0 mm
12:50 AM 63.6°F17.6°C 62.1°F16.7°C 95% 12.7 mph SE20.4 kmh SE 16.1 mph25.9 kmh 30.02 in1016.6 mb 0.02 in0.5 mm 0.24 in/hr6.1 mm/hr 0.07 in1.8 mm
12:45 AM 63.6°F17.6°C 62.1°F16.7°C 95% 9.2 mph SE14.8 kmh SE 13.8 mph22.2 kmh 30.03 in1016.9 mb 0.06 in1.5 mm 0.72 in/hr18.3 mm/hr 0.06 in1.5 mm
12:40 AM 63.6°F17.6°C 62.1°F16.7°C 95% 10.4 mph SE16.7 kmh SE 15.0 mph24.1 kmh 30.02 in1016.6 mb 0.00 in0.0 mm 0.00 in/hr0.0 mm/hr 0.00 in0.0 mm
12:30 AM 63.7°F17.6°C 62.2°F16.8°C 95% 6.9 mph SE11.1 kmh SE 11.5 mph18.5 kmh 30.03 in1016.9 mb 0.00 in0.0 mm 0.00 in/hr0.0 mm/hr 0.00 in0.0 mm
12:10 AM 63.8°F17.7°C 62.0°F16.7°C 94% 8.1 mph SSE13.0 kmh SSE 11.5 mph18.5 kmh 30.03 in1016.9 mb 0.00 in0.0 mm 0.00 in/hr0.0 mm/hr 0.00 in0.0 mm